createdAt,value
2018-08-21T00:00:04.661Z,1021.57
2018-08-21T00:01:14.526Z,1021.57
2018-08-21T00:02:24.370Z,1021.55
2018-08-21T00:03:34.482Z,1021.51
2018-08-21T00:04:44.593Z,1021.55
2018-08-21T00:05:54.168Z,1021.51
2018-08-21T00:07:04.009Z,1021.52
2018-08-21T00:08:14.135Z,1021.53
2018-08-21T00:09:23.713Z,1021.55
2018-08-21T00:10:33.296Z,1021.55
2018-08-21T00:11:43.136Z,1021.54
2018-08-21T00:12:52.704Z,1021.57
2018-08-21T00:14:02.012Z,1021.56
2018-08-21T00:15:11.321Z,1021.52
2018-08-21T00:16:21.176Z,1021.52
2018-08-21T00:17:31.298Z,1021.56
2018-08-21T00:18:40.872Z,1021.58
2018-08-21T00:19:50.722Z,1021.58
2018-08-21T00:21:00.293Z,1021.6
2018-08-21T00:22:09.329Z,1021.57
2018-08-21T00:23:19.448Z,1021.55
2018-08-21T00:24:29.020Z,1021.57
2018-08-21T00:25:38.328Z,1021.53
2018-08-21T00:26:48.441Z,1021.57
2018-08-21T00:27:58.023Z,1021.51
2018-08-21T00:29:07.862Z,1021.53
2018-08-21T00:30:16.903Z,1021.53
2018-08-21T00:31:25.936Z,1021.51
2018-08-21T00:32:35.513Z,1021.53
2018-08-21T00:33:44.815Z,1021.54
2018-08-21T00:34:54.392Z,1021.54
2018-08-21T00:36:03.967Z,1021.52
2018-08-21T00:37:13.545Z,1021.5
2018-08-21T00:38:23.125Z,1021.53
2018-08-21T00:39:32.696Z,1021.51
2018-08-21T00:40:42.543Z,1021.52
2018-08-21T00:41:52.658Z,1021.57
2018-08-21T00:43:02.504Z,1021.59
2018-08-21T00:44:12.613Z,1021.54
2018-08-21T00:45:22.726Z,1021.53
2018-08-21T00:46:32.305Z,1021.53
2018-08-21T00:47:41.882Z,1021.54
2018-08-21T00:48:51.991Z,1021.55
2018-08-21T00:50:01.830Z,1021.54
2018-08-21T00:51:11.414Z,1021.55
2018-08-21T00:52:20.765Z,1021.57
2018-08-21T00:53:30.075Z,1021.61
2018-08-21T00:54:39.649Z,1021.54
2018-08-21T00:55:49.506Z,1021.55
2018-08-21T00:56:59.621Z,1021.53
2018-08-21T00:58:09.201Z,1021.54
2018-08-21T00:59:19.039Z,1021.54
2018-08-21T01:00:29.173Z,1021.55
2018-08-21T01:01:38.749Z,1021.54
2018-08-21T01:02:48.330Z,1021.55
2018-08-21T01:03:58.444Z,1021.53
2018-08-21T01:05:08.015Z,1021.56
2018-08-21T01:06:17.857Z,1021.49
2018-08-21T01:07:27.699Z,1021.49
2018-08-21T01:08:37.275Z,1021.49
2018-08-21T01:09:46.365Z,1021.52
2018-08-21T01:10:55.939Z,1021.57
2018-08-21T01:12:05.778Z,1021.58
2018-08-21T01:13:15.371Z,1021.61
2018-08-21T01:14:25.263Z,1021.64
2018-08-21T01:15:35.118Z,1021.61
2018-08-21T01:16:44.971Z,1021.63
2018-08-21T01:17:55.090Z,1021.65
2018-08-21T01:19:04.938Z,1021.66
2018-08-21T01:20:14.781Z,1021.69
2018-08-21T01:21:24.357Z,1021.7
2018-08-21T01:22:33.981Z,1021.68
2018-08-21T01:23:44.109Z,1021.7
2018-08-21T01:24:54.235Z,1021.68
2018-08-21T01:26:04.082Z,1021.7
2018-08-21T01:27:13.922Z,1021.69
2018-08-21T01:28:23.227Z,1021.65
2018-08-21T01:29:33.074Z,1021.69
2018-08-21T01:30:42.918Z,1021.69
2018-08-21T01:31:52.768Z,1021.72
2018-08-21T01:33:02.393Z,1021.7
2018-08-21T01:34:12.018Z,1021.7
2018-08-21T01:35:21.594Z,1021.7
2018-08-21T01:36:31.441Z,1021.69
2018-08-21T01:37:41.282Z,1021.7
2018-08-21T01:38:50.861Z,1021.68
2018-08-21T01:40:00.976Z,1021.69
2018-08-21T01:41:10.829Z,1021.7
2018-08-21T01:42:20.405Z,1021.71
2018-08-21T01:43:30.251Z,1021.7
2018-08-21T01:44:40.096Z,1021.69
2018-08-21T01:45:50.211Z,1021.7
2018-08-21T01:47:00.054Z,1021.72
2018-08-21T01:48:09.354Z,1021.7
2018-08-21T01:49:18.660Z,1021.66
2018-08-21T01:50:28.564Z,1021.74
2018-08-21T01:51:38.417Z,1021.8
2018-08-21T01:52:47.995Z,1021.77
2018-08-21T01:53:57.299Z,1021.82
2018-08-21T01:55:07.423Z,1021.83
2018-08-21T01:56:17.000Z,1021.79
2018-08-21T01:57:26.849Z,1021.83
2018-08-21T01:58:36.973Z,1021.81
2018-08-21T01:59:46.283Z,1021.78
2018-08-21T02:00:56.415Z,1021.81
2018-08-21T02:02:05.993Z,1021.81
2018-08-21T02:03:16.116Z,1021.75
2018-08-21T02:04:25.691Z,1021.75
2018-08-21T02:05:35.805Z,1021.75
2018-08-21T02:06:45.917Z,1021.72
2018-08-21T02:07:55.504Z,1021.72
2018-08-21T02:09:05.098Z,1021.74
2018-08-21T02:10:15.212Z,1021.77
2018-08-21T02:11:25.338Z,1021.78
2018-08-21T02:12:34.918Z,1021.75
2018-08-21T02:13:44.546Z,1021.8
2018-08-21T02:14:54.388Z,1021.76
2018-08-21T02:16:03.966Z,1021.71
2018-08-21T02:17:13.541Z,1021.69
2018-08-21T02:18:23.654Z,1021.72
2018-08-21T02:19:33.229Z,1021.74
2018-08-21T02:20:43.076Z,1021.72
2018-08-21T02:21:52.924Z,1021.7
2018-08-21T02:23:02.228Z,1021.7
2018-08-21T02:24:11.802Z,1021.68
2018-08-21T02:25:21.370Z,1021.71
2018-08-21T02:26:31.212Z,1021.67
2018-08-21T02:27:40.791Z,1021.64
2018-08-21T02:28:50.371Z,1021.67
2018-08-21T02:30:00.485Z,1021.65
2018-08-21T02:31:09.256Z,1021.66
2018-08-21T02:32:19.100Z,1021.68
2018-08-21T02:33:29.233Z,1021.67
2018-08-21T02:34:38.808Z,1021.68
2018-08-21T02:35:48.649Z,1021.69
2018-08-21T02:36:58.224Z,1021.68
2018-08-21T02:38:08.342Z,1021.66
2018-08-21T02:39:18.192Z,1021.68
2018-08-21T02:40:28.033Z,1021.65
2018-08-21T02:41:37.652Z,1021.67
2018-08-21T02:42:47.772Z,1021.68
2018-08-21T02:43:57.622Z,1021.72
2018-08-21T02:45:07.195Z,1021.68
2018-08-21T02:46:16.768Z,1021.69
2018-08-21T02:47:25.806Z,1021.68
2018-08-21T02:48:35.481Z,1021.66
2018-08-21T02:49:44.805Z,1021.69
2018-08-21T02:50:54.650Z,1021.64
2018-08-21T02:52:04.226Z,1021.66
2018-08-21T02:53:14.072Z,1021.61
2018-08-21T02:54:23.922Z,1021.61
2018-08-21T02:55:33.505Z,1021.58
2018-08-21T02:56:43.346Z,1021.57
2018-08-21T02:57:52.651Z,1021.58
2018-08-21T02:59:02.497Z,1021.6
2018-08-21T03:00:12.123Z,1021.56
2018-08-21T03:01:21.704Z,1021.57
2018-08-21T03:02:31.824Z,1021.54
2018-08-21T03:03:41.402Z,1021.58
2018-08-21T03:04:51.248Z,1021.58
2018-08-21T03:06:00.819Z,1021.58
2018-08-21T03:07:10.660Z,1021.58
2018-08-21T03:08:20.237Z,1021.56
2018-08-21T03:09:30.082Z,1021.54
2018-08-21T03:10:39.658Z,1021.52
2018-08-21T03:11:49.500Z,1021.52
2018-08-21T03:12:58.824Z,1021.52
2018-08-21T03:14:08.397Z,1021.48
2018-08-21T03:15:18.251Z,1021.52
2018-08-21T03:16:27.828Z,1021.49
2018-08-21T03:17:37.995Z,1021.52
2018-08-21T03:18:47.578Z,1021.46
2018-08-21T03:19:57.425Z,1021.5
2018-08-21T03:21:06.731Z,1021.49
2018-08-21T03:22:16.300Z,1021.51
2018-08-21T03:23:26.473Z,1021.47
2018-08-21T03:24:36.048Z,1021.5
2018-08-21T03:25:45.356Z,1021.54
2018-08-21T03:26:55.207Z,1021.51
2018-08-21T03:28:05.050Z,1021.57
2018-08-21T03:29:14.620Z,1021.5
2018-08-21T03:30:24.457Z,1021.51
2018-08-21T03:31:34.032Z,1021.54
2018-08-21T03:32:44.160Z,1021.55
2018-08-21T03:33:53.480Z,1021.56
2018-08-21T03:35:03.329Z,1021.51
2018-08-21T03:36:12.905Z,1021.51
2018-08-21T03:37:22.476Z,1021.52
2018-08-21T03:38:32.580Z,1021.56
2018-08-21T03:39:42.157Z,1021.56
2018-08-21T03:40:52.004Z,1021.56
2018-08-21T03:42:01.857Z,1021.57
2018-08-21T03:43:11.437Z,1021.61
2018-08-21T03:44:21.550Z,1021.62
2018-08-21T03:45:31.405Z,1021.66
2018-08-21T03:46:41.249Z,1021.69
2018-08-21T03:47:51.088Z,1021.71
2018-08-21T03:49:01.213Z,1021.68
2018-08-21T03:50:10.803Z,1021.68
2018-08-21T03:51:20.382Z,1021.67
2018-08-21T03:52:30.288Z,1021.68
2018-08-21T03:53:40.141Z,1021.63
2018-08-21T03:54:49.711Z,1021.63
2018-08-21T03:55:59.556Z,1021.61
2018-08-21T03:57:09.185Z,1021.63
2018-08-21T03:58:19.073Z,1021.62
2018-08-21T03:59:29.192Z,1021.56
2018-08-21T04:00:38.768Z,1021.58
2018-08-21T04:01:48.891Z,1021.56
2018-08-21T04:02:58.484Z,1021.56
2018-08-21T04:04:08.600Z,1021.61
2018-08-21T04:05:18.444Z,1021.62
2018-08-21T04:06:28.287Z,1021.61
2018-08-21T04:07:37.601Z,1021.6
2018-08-21T04:08:47.469Z,1021.6
2018-08-21T04:09:56.507Z,1021.64
2018-08-21T04:11:06.637Z,1021.67
2018-08-21T04:12:16.486Z,1021.65
2018-08-21T04:13:26.330Z,1021.65
2018-08-21T04:14:35.897Z,1021.67
2018-08-21T04:15:45.469Z,1021.71
2018-08-21T04:16:54.504Z,1021.72
2018-08-21T04:18:04.347Z,1021.73
2018-08-21T04:19:13.920Z,1021.73
2018-08-21T04:20:23.760Z,1021.74
2018-08-21T04:21:33.604Z,1021.71
2018-08-21T04:22:43.719Z,1021.74
2018-08-21T04:23:53.021Z,1021.77
2018-08-21T04:25:02.875Z,1021.81
2018-08-21T04:26:12.461Z,1021.83
2018-08-21T04:27:22.573Z,1021.86
2018-08-21T04:28:32.689Z,1021.8
2018-08-21T04:29:42.534Z,1021.81
2018-08-21T04:30:52.656Z,1021.85
2018-08-21T04:32:01.966Z,1021.87
2018-08-21T04:33:11.541Z,1021.83
2018-08-21T04:34:21.660Z,1021.85
2018-08-21T04:35:31.506Z,1021.9
2018-08-21T04:36:41.356Z,1021.85
2018-08-21T04:37:50.966Z,1021.89
2018-08-21T04:39:01.491Z,1021.87
2018-08-21T04:40:11.622Z,1021.92
2018-08-21T04:41:20.926Z,1021.96
2018-08-21T04:42:30.508Z,1021.95
2018-08-21T04:43:40.104Z,1021.93
2018-08-21T04:44:50.235Z,1021.95
2018-08-21T04:46:00.346Z,1021.96
2018-08-21T04:47:10.262Z,1021.96
2018-08-21T04:48:20.375Z,1021.98
2018-08-21T04:49:30.494Z,1022.01
2018-08-21T04:50:40.342Z,1021.99
2018-08-21T04:51:49.376Z,1022.02
2018-08-21T04:52:58.951Z,1022.03
2018-08-21T04:54:08.526Z,1022.06
2018-08-21T04:55:17.830Z,1022.03
2018-08-21T04:56:27.407Z,1022.02
2018-08-21T04:57:37.250Z,1022.05
2018-08-21T04:58:47.126Z,1022.05
2018-08-21T04:59:57.274Z,1022.04
2018-08-21T05:01:06.583Z,1022.01
2018-08-21T05:02:16.439Z,1022.03
2018-08-21T05:03:26.562Z,1021.98
2018-08-21T05:04:36.139Z,1022.02
2018-08-21T05:05:45.735Z,1022.05
2018-08-21T05:06:55.498Z,1022.06
2018-08-21T05:08:05.624Z,1022.07
2018-08-21T05:09:15.470Z,1022.02
2018-08-21T05:10:24.507Z,1022.06
2018-08-21T05:11:34.356Z,1022.08
2018-08-21T05:12:44.296Z,1022.05
2018-08-21T05:13:53.792Z,1022.08
2018-08-21T05:15:03.905Z,1022.08
2018-08-21T05:16:13.494Z,1022.09
2018-08-21T05:17:23.332Z,1022.09
2018-08-21T05:18:32.644Z,1022.13
2018-08-21T05:19:42.232Z,1022.09
2018-08-21T05:20:51.535Z,1022.16
2018-08-21T05:22:01.392Z,1022.13
2018-08-21T05:23:10.976Z,1022.1
2018-08-21T05:24:20.545Z,1022.12
2018-08-21T05:25:30.385Z,1022.12
2018-08-21T05:26:39.980Z,1022.11
2018-08-21T05:27:49.564Z,1022.12
2018-08-21T05:28:59.139Z,1022.16
2018-08-21T05:30:08.441Z,1022.13
2018-08-21T05:31:18.553Z,1022.15
2018-08-21T05:32:27.856Z,1022.2
2018-08-21T05:33:37.165Z,1022.21
2018-08-21T05:34:46.735Z,1022.2
2018-08-21T05:35:56.041Z,1022.19
2018-08-21T05:37:06.179Z,1022.19
2018-08-21T05:38:15.754Z,1022.17
2018-08-21T05:39:25.602Z,1022.21
2018-08-21T05:40:35.718Z,1022.27
2018-08-21T05:41:45.569Z,1022.29
2018-08-21T05:42:54.875Z,1022.33
2018-08-21T05:44:04.174Z,1022.36
2018-08-21T05:45:14.290Z,1022.32
2018-08-21T05:46:24.163Z,1022.37
2018-08-21T05:47:33.757Z,1022.39
2018-08-21T05:48:43.661Z,1022.39
2018-08-21T05:49:53.290Z,1022.4
2018-08-21T05:51:03.149Z,1022.37
2018-08-21T05:52:12.736Z,1022.37
2018-08-21T05:53:22.851Z,1022.41
2018-08-21T05:54:32.986Z,1022.4
2018-08-21T05:55:42.853Z,1022.45
2018-08-21T05:56:52.896Z,1022.41
2018-08-21T05:58:02.469Z,1022.44
2018-08-21T05:59:12.038Z,1022.45
2018-08-21T06:00:21.346Z,1022.42
2018-08-21T06:01:31.197Z,1022.42
2018-08-21T06:02:41.037Z,1022.48
2018-08-21T06:03:51.160Z,1022.41
2018-08-21T06:05:00.737Z,1022.41
2018-08-21T06:06:10.041Z,1022.45
2018-08-21T06:07:19.360Z,1022.51
2018-08-21T06:08:28.934Z,1022.52
2018-08-21T06:09:38.507Z,1022.56
2018-08-21T06:10:48.628Z,1022.51
2018-08-21T06:11:58.203Z,1022.5
2018-08-21T06:13:07.782Z,1022.54
2018-08-21T06:14:17.644Z,1022.53
2018-08-21T06:15:27.495Z,1022.55
2018-08-21T06:16:37.075Z,1022.57
2018-08-21T06:17:46.918Z,1022.6
2018-08-21T06:18:56.544Z,1022.6
2018-08-21T06:20:07.075Z,1022.62
2018-08-21T06:21:17.192Z,1022.61
2018-08-21T06:22:27.302Z,1022.62
2018-08-21T06:23:37.695Z,1022.63
2018-08-21T06:24:47.591Z,1022.66
2018-08-21T06:25:58.312Z,1022.64
2018-08-21T06:27:07.727Z,1022.68
2018-08-21T06:28:17.946Z,1022.64
2018-08-21T06:29:27.269Z,1022.63
2018-08-21T06:30:37.388Z,1022.66
2018-08-21T06:31:46.963Z,1022.65
2018-08-21T06:32:56.988Z,1022.69
2018-08-21T06:34:06.839Z,1022.72
2018-08-21T06:35:16.961Z,1022.76
2018-08-21T06:36:26.803Z,1022.8
2018-08-21T06:37:36.166Z,1022.81
2018-08-21T06:38:45.744Z,1022.83
2018-08-21T06:39:55.875Z,1022.76
2018-08-21T06:41:05.493Z,1022.81
2018-08-21T06:42:15.617Z,1022.82
2018-08-21T06:43:25.469Z,1022.82
2018-08-21T06:44:35.051Z,1022.84
2018-08-21T06:45:45.163Z,1022.89
2018-08-21T06:46:55.002Z,1022.85
2018-08-21T06:48:04.627Z,1022.89
2018-08-21T06:49:14.207Z,1022.83
2018-08-21T06:50:24.326Z,1022.88
2018-08-21T06:51:33.902Z,1022.81
2018-08-21T06:52:43.476Z,1022.77
2018-08-21T06:53:53.370Z,1022.76
2018-08-21T06:55:03.215Z,1022.77
2018-08-21T06:56:13.067Z,1022.8
2018-08-21T06:57:22.642Z,1022.81
2018-08-21T06:58:32.228Z,1022.81
2018-08-21T06:59:42.366Z,1022.82
2018-08-21T07:00:52.487Z,1022.79
2018-08-21T07:02:02.334Z,1022.84
2018-08-21T07:03:12.195Z,1022.82
2018-08-21T07:04:21.820Z,1022.86
2018-08-21T07:05:31.126Z,1022.86
2018-08-21T07:06:40.702Z,1022.88
2018-08-21T07:07:50.279Z,1022.89
2018-08-21T07:09:00.135Z,1022.87
2018-08-21T07:10:09.983Z,1022.93
2018-08-21T07:11:19.826Z,1022.9
2018-08-21T07:12:29.403Z,1022.89
2018-08-21T07:13:39.515Z,1022.91
2018-08-21T07:14:49.406Z,1022.86
2018-08-21T07:15:59.259Z,1022.88
2018-08-21T07:17:08.566Z,1022.88
2018-08-21T07:18:18.681Z,1022.88
2018-08-21T07:19:28.262Z,1022.89
2018-08-21T07:20:38.104Z,1022.87
2018-08-21T07:21:47.681Z,1022.89
2018-08-21T07:22:56.991Z,1022.9
2018-08-21T07:24:06.849Z,1022.89
2018-08-21T07:25:16.708Z,1022.88
2018-08-21T07:26:26.821Z,1022.87
2018-08-21T07:27:36.663Z,1022.83
2018-08-21T07:28:46.506Z,1022.84
2018-08-21T07:29:56.352Z,1022.78
2018-08-21T07:31:05.657Z,1022.75
2018-08-21T07:32:15.239Z,1022.79
2018-08-21T07:33:25.407Z,1022.81
2018-08-21T07:34:35.257Z,1022.81
2018-08-21T07:35:45.426Z,1022.82
2018-08-21T07:36:54.866Z,1022.87
2018-08-21T07:38:04.442Z,1022.87
2018-08-21T07:39:14.617Z,1022.88
2018-08-21T07:40:24.464Z,1022.87
2018-08-21T07:41:34.083Z,1022.87
2018-08-21T07:42:44.196Z,1022.85
2018-08-21T07:43:54.311Z,1022.89
2018-08-21T07:45:04.434Z,1022.91
2018-08-21T07:46:14.292Z,1022.87
2018-08-21T07:47:24.300Z,1022.86
2018-08-21T07:48:33.883Z,1022.88
2018-08-21T07:49:43.741Z,1022.92
2018-08-21T07:50:53.916Z,1022.91
2018-08-21T07:52:03.513Z,1022.92
2018-08-21T07:53:13.089Z,1022.92
2018-08-21T07:54:22.670Z,1022.91
2018-08-21T07:55:32.517Z,1022.94
2018-08-21T07:56:42.358Z,1022.91
2018-08-21T07:57:52.207Z,1022.91
2018-08-21T07:59:02.160Z,1022.9
2018-08-21T08:00:12.008Z,1022.91
2018-08-21T08:01:21.583Z,1022.93
2018-08-21T08:02:31.159Z,1022.89
2018-08-21T08:03:40.735Z,1022.97
2018-08-21T08:04:50.085Z,1022.87
2018-08-21T08:05:59.933Z,1022.93
2018-08-21T08:07:08.969Z,1022.97
2018-08-21T08:08:19.211Z,1022.94
2018-08-21T08:09:29.058Z,1022.99
2018-08-21T08:10:38.640Z,1023
2018-08-21T08:11:48.488Z,1023.01
2018-08-21T08:12:58.339Z,1022.98
2018-08-21T08:14:07.924Z,1022.99
2018-08-21T08:15:16.951Z,1022.97
2018-08-21T08:16:26.798Z,1022.95
2018-08-21T08:17:36.919Z,1022.93
2018-08-21T08:18:47.040Z,1022.99
2018-08-21T08:19:57.276Z,1023.01
2018-08-21T08:21:06.623Z,1023.01
2018-08-21T08:22:16.455Z,1023
2018-08-21T08:23:26.407Z,1023.04
2018-08-21T08:24:36.338Z,1023.03
2018-08-21T08:25:46.191Z,1023.05
2018-08-21T08:26:56.315Z,1023.02
2018-08-21T08:28:06.437Z,1023.08
2018-08-21T08:29:16.558Z,1023.07
2018-08-21T08:30:25.597Z,1023.09
2018-08-21T08:31:35.447Z,1023.06
2018-08-21T08:32:45.570Z,1023.09
2018-08-21T08:33:55.488Z,1023.09
2018-08-21T08:35:05.615Z,1023
2018-08-21T08:36:15.518Z,1023.07
2018-08-21T08:37:25.365Z,1023.05
2018-08-21T08:38:35.498Z,1023.09
2018-08-21T08:39:45.639Z,1023.08
2018-08-21T08:40:55.769Z,1023.07
2018-08-21T08:42:06.017Z,1023.07
2018-08-21T08:43:16.294Z,1023.11
2018-08-21T08:44:26.432Z,1023.09
2018-08-21T08:45:36.009Z,1023.13
2018-08-21T08:46:45.596Z,1023.08
2018-08-21T08:47:55.457Z,1023.06
2018-08-21T08:49:05.320Z,1023.08
2018-08-21T08:50:15.166Z,1023.1
2018-08-21T08:51:24.473Z,1023.08
2018-08-21T08:52:34.319Z,1023.09
2018-08-21T08:53:44.171Z,1023.09
2018-08-21T08:54:53.746Z,1023.09
2018-08-21T08:56:03.324Z,1023.09
2018-08-21T08:57:12.904Z,1023.1
2018-08-21T08:58:22.774Z,1023.13
2018-08-21T08:59:33.256Z,1023.15
2018-08-21T09:00:42.751Z,1023.1
2018-08-21T09:01:51.787Z,1023.13
2018-08-21T09:03:01.631Z,1023.12
2018-08-21T09:04:11.482Z,1023.14
2018-08-21T09:05:21.426Z,1023.13
2018-08-21T09:06:31.989Z,1023.13
2018-08-21T09:07:42.112Z,1023.12
2018-08-21T09:08:51.953Z,1023.11
2018-08-21T09:10:01.848Z,1023.13
2018-08-21T09:11:11.157Z,1023.11
2018-08-21T09:12:20.735Z,1023.09
2018-08-21T09:13:30.857Z,1023.08
2018-08-21T09:14:40.162Z,1023.11
2018-08-21T09:15:50.014Z,1023.1
2018-08-21T09:16:59.861Z,1023.13
2018-08-21T09:18:09.444Z,1023.14
2018-08-21T09:19:18.760Z,1023.08
2018-08-21T09:20:28.066Z,1023.12
2018-08-21T09:21:37.918Z,1023.1
2018-08-21T09:22:48.042Z,1023.09
2018-08-21T09:23:57.936Z,1023.08
2018-08-21T09:25:07.516Z,1023.11
2018-08-21T09:26:17.640Z,1023.11
2018-08-21T09:27:27.217Z,1023.12
2018-08-21T09:28:37.131Z,1023.13
2018-08-21T09:29:46.976Z,1023.11
2018-08-21T09:30:56.821Z,1023.08
2018-08-21T09:32:06.400Z,1023.09
2018-08-21T09:33:16.253Z,1023.05
2018-08-21T09:34:26.372Z,1023.08
2018-08-21T09:35:35.956Z,1023.06
2018-08-21T09:36:45.803Z,1023.09
2018-08-21T09:37:55.665Z,1023.09
2018-08-21T09:39:05.027Z,1023.1
2018-08-21T09:40:14.335Z,1023.09
2018-08-21T09:41:23.915Z,1023.06
2018-08-21T09:42:33.756Z,1023.05
2018-08-21T09:43:43.875Z,1023.02
2018-08-21T09:44:53.723Z,1023.05
2018-08-21T09:46:03.595Z,1023.06
2018-08-21T09:47:13.183Z,1023.02
2018-08-21T09:48:23.032Z,1022.99
2018-08-21T09:49:32.614Z,1022.97
2018-08-21T09:50:42.466Z,1022.98
2018-08-21T09:51:52.328Z,1022.99
2018-08-21T09:53:01.990Z,1022.97
2018-08-21T09:54:11.299Z,1023.02
2018-08-21T09:55:21.147Z,1022.97
2018-08-21T09:56:30.458Z,1022.93
2018-08-21T09:57:40.586Z,1022.95
2018-08-21T09:58:50.714Z,1022.91
2018-08-21T10:00:00.827Z,1022.91
2018-08-21T10:01:10.680Z,1022.9
2018-08-21T10:02:20.800Z,1022.91
2018-08-21T10:03:30.649Z,1022.91
2018-08-21T10:04:40.284Z,1022.88
2018-08-21T10:05:50.400Z,1022.88
2018-08-21T10:06:59.977Z,1022.88
2018-08-21T10:08:09.828Z,1022.85
2018-08-21T10:09:19.674Z,1022.82
2018-08-21T10:10:29.254Z,1022.8
2018-08-21T10:11:38.557Z,1022.83
2018-08-21T10:12:48.680Z,1022.85
2018-08-21T10:13:58.523Z,1022.83
2018-08-21T10:15:08.644Z,1022.82
2018-08-21T10:16:18.778Z,1022.79
2018-08-21T10:17:28.635Z,1022.8
2018-08-21T10:18:38.760Z,1022.83
2018-08-21T10:19:48.344Z,1022.85
2018-08-21T10:20:58.241Z,1022.85
2018-08-21T10:22:07.868Z,1022.8
2018-08-21T10:23:17.457Z,1022.81
2018-08-21T10:24:26.768Z,1022.8
2018-08-21T10:25:36.077Z,1022.75
2018-08-21T10:26:45.388Z,1022.71
2018-08-21T10:27:55.242Z,1022.77
2018-08-21T10:29:05.370Z,1022.75
2018-08-21T10:30:15.222Z,1022.75
2018-08-21T10:31:25.345Z,1022.75
2018-08-21T10:32:35.197Z,1022.74
2018-08-21T10:33:45.059Z,1022.74
2018-08-21T10:34:54.743Z,1022.78
2018-08-21T10:36:05.123Z,1022.71
2018-08-21T10:37:14.973Z,1022.68
2018-08-21T10:38:23.742Z,1022.72
2018-08-21T10:39:33.320Z,1022.7
2018-08-21T10:40:42.901Z,1022.7
2018-08-21T10:41:52.485Z,1022.71
2018-08-21T10:43:01.794Z,1022.68
2018-08-21T10:44:11.643Z,1022.73
2018-08-21T10:45:21.773Z,1022.71
2018-08-21T10:46:31.630Z,1022.69
2018-08-21T10:47:41.756Z,1022.69
2018-08-21T10:48:51.605Z,1022.66
2018-08-21T10:50:01.455Z,1022.68
2018-08-21T10:51:11.577Z,1022.68
2018-08-21T10:52:21.430Z,1022.65
2018-08-21T10:53:31.277Z,1022.64
2018-08-21T10:54:41.392Z,1022.6
2018-08-21T10:55:50.970Z,1022.61
2018-08-21T10:57:00.290Z,1022.58
2018-08-21T10:58:10.406Z,1022.61
2018-08-21T10:59:20.520Z,1022.59
2018-08-21T11:00:30.368Z,1022.55
2018-08-21T11:01:40.224Z,1022.56
2018-08-21T11:02:49.802Z,1022.52
2018-08-21T11:03:59.382Z,1022.54
2018-08-21T11:05:08.693Z,1022.53
2018-08-21T11:06:18.554Z,1022.49
2018-08-21T11:07:28.674Z,1022.51
2018-08-21T11:08:37.983Z,1022.52
2018-08-21T11:09:47.570Z,1022.48
2018-08-21T11:10:57.690Z,1022.52
2018-08-21T11:12:07.547Z,1022.51
2018-08-21T11:13:17.126Z,1022.51
2018-08-21T11:14:26.968Z,1022.5
2018-08-21T11:15:36.815Z,1022.52
2018-08-21T11:16:46.392Z,1022.54
2018-08-21T11:17:55.980Z,1022.54
2018-08-21T11:19:05.578Z,1022.52
2018-08-21T11:20:15.432Z,1022.47
2018-08-21T11:21:25.071Z,1022.57
2018-08-21T11:22:35.318Z,1022.57
2018-08-21T11:23:44.894Z,1022.5
2018-08-21T11:24:53.932Z,1022.51
2018-08-21T11:26:03.509Z,1022.51
2018-08-21T11:27:13.358Z,1022.47
2018-08-21T11:28:22.940Z,1022.5
2018-08-21T11:29:32.790Z,1022.5
2018-08-21T11:30:42.962Z,1022.48
2018-08-21T11:31:52.817Z,1022.45
2018-08-21T11:33:02.947Z,1022.43
2018-08-21T11:34:12.795Z,1022.45
2018-08-21T11:35:22.912Z,1022.46
2018-08-21T11:36:32.765Z,1022.44
2018-08-21T11:37:42.614Z,1022.41
2018-08-21T11:38:52.729Z,1022.42
2018-08-21T11:40:02.307Z,1022.41
2018-08-21T11:41:12.157Z,1022.47
2018-08-21T11:42:22.007Z,1022.43
2018-08-21T11:43:31.314Z,1022.42
2018-08-21T11:44:41.168Z,1022.39
2018-08-21T11:45:51.024Z,1022.37
2018-08-21T11:47:01.173Z,1022.38
2018-08-21T11:48:11.106Z,1022.35
2018-08-21T11:49:20.887Z,1022.39
2018-08-21T11:50:30.502Z,1022.41
2018-08-21T11:51:40.357Z,1022.38
2018-08-21T11:52:50.477Z,1022.37
2018-08-21T11:54:00.594Z,1022.36
2018-08-21T11:55:09.898Z,1022.37
2018-08-21T11:56:19.482Z,1022.36
2018-08-21T11:57:29.614Z,1022.39
2018-08-21T11:58:39.466Z,1022.33
2018-08-21T11:59:49.047Z,1022.31
2018-08-21T12:00:58.899Z,1022.31
2018-08-21T12:02:08.622Z,1022.35
2018-08-21T12:03:18.105Z,1022.31
2018-08-21T12:04:28.198Z,1022.31
2018-08-21T12:05:37.513Z,1022.36
2018-08-21T12:06:47.361Z,1022.36
2018-08-21T12:07:57.213Z,1022.29
2018-08-21T12:09:07.075Z,1022.32
2018-08-21T12:10:16.657Z,1022.31
2018-08-21T12:11:26.521Z,1022.27
2018-08-21T12:12:36.113Z,1022.23
2018-08-21T12:13:45.705Z,1022.22
2018-08-21T12:14:55.289Z,1022.25
2018-08-21T12:16:04.873Z,1022.21
2018-08-21T12:17:14.997Z,1022.19
2018-08-21T12:18:24.577Z,1022.22
2018-08-21T12:19:34.437Z,1022.2
2018-08-21T12:20:44.291Z,1022.16
2018-08-21T12:21:54.410Z,1022.22
2018-08-21T12:23:04.321Z,1022.21
2018-08-21T12:24:13.629Z,1022.19
2018-08-21T12:25:23.746Z,1022.22
2018-08-21T12:26:33.332Z,1022.25
2018-08-21T12:27:43.181Z,1022.26
2018-08-21T12:28:52.536Z,1022.27
2018-08-21T12:30:02.788Z,1022.22
2018-08-21T12:31:12.465Z,1022.22
2018-08-21T12:32:22.046Z,1022.17
2018-08-21T12:33:31.635Z,1022.23
2018-08-21T12:34:41.513Z,1022.2
2018-08-21T12:35:51.098Z,1022.17
2018-08-21T12:37:00.941Z,1022.16
2018-08-21T12:38:10.836Z,1022.16
2018-08-21T12:39:20.589Z,1022.14
2018-08-21T12:40:30.195Z,1022.12
2018-08-21T12:41:40.049Z,1022.1
2018-08-21T12:42:49.637Z,1022.09
2018-08-21T12:43:59.002Z,1022.04
2018-08-21T12:45:08.592Z,1021.99
2018-08-21T12:46:18.457Z,1021.99
2018-08-21T12:47:28.315Z,1021.95
2018-08-21T12:48:37.622Z,1022.01
2018-08-21T12:49:47.794Z,1022.01
2018-08-21T12:50:57.655Z,1022.02
2018-08-21T12:52:07.520Z,1022
2018-08-21T12:53:17.110Z,1021.98
2018-08-21T12:54:26.957Z,1021.99
2018-08-21T12:55:36.591Z,1021.92
2018-08-21T12:56:46.495Z,1021.92
2018-08-21T12:57:56.507Z,1021.96
2018-08-21T12:59:06.132Z,1021.95
2018-08-21T13:00:15.998Z,1022
2018-08-21T13:01:26.254Z,1021.94
2018-08-21T13:02:36.104Z,1021.94
2018-08-21T13:03:45.964Z,1021.94
2018-08-21T13:04:55.931Z,1021.97
2018-08-21T13:06:05.799Z,1021.93
2018-08-21T13:07:15.392Z,1021.96
2018-08-21T13:08:24.704Z,1021.93
2018-08-21T13:09:34.558Z,1021.91
2018-08-21T13:10:43.878Z,1021.91
2018-08-21T13:11:53.468Z,1021.89
2018-08-21T13:13:03.325Z,1021.88
2018-08-21T13:14:12.372Z,1021.86
2018-08-21T13:15:21.950Z,1021.8
2018-08-21T13:16:31.268Z,1021.82
2018-08-21T13:17:41.395Z,1021.84
2018-08-21T13:18:51.311Z,1021.81
2018-08-21T13:20:00.895Z,1021.84
2018-08-21T13:21:10.204Z,1021.83
2018-08-21T13:22:20.064Z,1021.79
2018-08-21T13:23:29.651Z,1021.79
2018-08-21T13:24:39.320Z,1021.77
2018-08-21T13:25:49.930Z,1021.78
2018-08-21T13:26:59.512Z,1021.81
2018-08-21T13:28:09.366Z,1021.78
2018-08-21T13:29:18.735Z,1021.75
2018-08-21T13:30:28.499Z,1021.79
2018-08-21T13:31:37.832Z,1021.8
2018-08-21T13:32:47.421Z,1021.78
2018-08-21T13:33:57.268Z,1021.74
2018-08-21T13:35:07.126Z,1021.77
2018-08-21T13:36:16.838Z,1021.71
2018-08-21T13:37:26.712Z,1021.72
2018-08-21T13:38:36.861Z,1021.71
2018-08-21T13:39:45.934Z,1021.72
2018-08-21T13:40:55.709Z,1021.68
2018-08-21T13:42:05.362Z,1021.7
2018-08-21T13:43:14.994Z,1021.64
2018-08-21T13:44:24.925Z,1021.64
2018-08-21T13:45:35.196Z,1021.62
2018-08-21T13:46:44.577Z,1021.61
2018-08-21T13:47:53.888Z,1021.64
2018-08-21T13:49:03.209Z,1021.65
2018-08-21T13:50:12.523Z,1021.64
2018-08-21T13:51:22.375Z,1021.64
2018-08-21T13:52:32.226Z,1021.65
2018-08-21T13:53:42.087Z,1021.69
2018-08-21T13:54:51.940Z,1021.62
2018-08-21T13:56:01.800Z,1021.6
2018-08-21T13:57:11.648Z,1021.59
2018-08-21T13:58:21.231Z,1021.66
2018-08-21T13:59:31.135Z,1021.62
2018-08-21T14:00:40.988Z,1021.6
2018-08-21T14:01:50.577Z,1021.6
2018-08-21T14:02:59.915Z,1021.63
2018-08-21T14:04:09.781Z,1021.66
2018-08-21T14:05:18.825Z,1021.66
2018-08-21T14:06:28.411Z,1021.71